createdAt,value
2018-01-07T00:01:25.581Z,30.87
2018-01-07T00:03:55.016Z,26.97
2018-01-07T00:06:24.473Z,26.40
2018-01-07T00:08:53.925Z,28.50
2018-01-07T00:11:23.394Z,28.03
2018-01-07T00:13:52.854Z,28.93
2018-01-07T00:16:22.369Z,27.43
2018-01-07T00:18:51.809Z,25.17
2018-01-07T00:21:22.713Z,27.33
2018-01-07T00:23:52.241Z,27.27
2018-01-07T00:26:21.683Z,29.70
2018-01-07T00:28:51.177Z,31.37
2018-01-07T00:31:20.639Z,30.50
2018-01-07T00:33:50.073Z,31.17
2018-01-07T00:36:19.532Z,32.17
2018-01-07T00:38:48.978Z,28.23
2018-01-07T00:41:18.526Z,32.07
2018-01-07T00:43:47.958Z,31.10
2018-01-07T00:46:17.416Z,33.67
2018-01-07T00:48:46.844Z,32.33
2018-01-07T00:51:16.373Z,31.97
2018-01-07T00:53:45.815Z,42.20
2018-01-07T00:56:15.253Z,37.17
2018-01-07T00:58:44.909Z,35.93
2018-01-07T01:01:14.430Z,31.53
2018-01-07T01:03:43.877Z,31.90
2018-01-07T01:06:13.317Z,27.97
2018-01-07T01:08:42.791Z,30.60
2018-01-07T01:11:12.222Z,26.70
2018-01-07T01:13:41.670Z,24.30
2018-01-07T01:16:11.122Z,29.20
2018-01-07T01:18:40.584Z,27.60
2018-01-07T01:21:10.039Z,26.77
2018-01-07T01:23:39.482Z,28.80
2018-01-07T01:26:08.938Z,27.40
2018-01-07T01:28:38.381Z,25.23
2018-01-07T01:31:07.838Z,23.57
2018-01-07T01:33:37.292Z,25.20
2018-01-07T01:36:06.856Z,23.13
2018-01-07T01:38:36.301Z,19.90
2018-01-07T01:41:05.841Z,24.77
2018-01-07T01:43:35.270Z,25.63
2018-01-07T01:46:04.743Z,20.57
2018-01-07T01:48:34.246Z,18.00
2018-01-07T01:51:03.682Z,21.40
2018-01-07T01:53:33.135Z,23.20
2018-01-07T01:56:02.586Z,27.03
2018-01-07T01:58:32.474Z,21.33
2018-01-07T02:01:01.914Z,19.13
2018-01-07T02:03:31.370Z,21.80
2018-01-07T02:06:00.806Z,20.73
2018-01-07T02:08:30.258Z,27.53
2018-01-07T02:10:59.702Z,38.60
2018-01-07T02:13:29.175Z,23.30
2018-01-07T02:15:58.614Z,26.80
2018-01-07T02:18:28.070Z,21.30
2018-01-07T02:20:57.513Z,46.70
2018-01-07T02:23:26.953Z,25.30
2018-01-07T02:25:56.678Z,40.63
2018-01-07T02:28:26.411Z,39.25
2018-01-07T02:30:55.864Z,38.47
2018-01-07T02:33:25.294Z,28.87
2018-01-07T02:35:54.742Z,62.20
2018-01-07T02:38:24.187Z,56.97
2018-01-07T02:40:53.905Z,72.07
2018-01-07T02:43:23.403Z,31.10
2018-01-07T02:45:52.913Z,38.33
2018-01-07T02:48:22.343Z,23.20
2018-01-07T02:50:51.802Z,27.70
2018-01-07T02:53:21.557Z,24.15
2018-01-07T02:55:51.289Z,48.33
2018-01-07T02:58:20.743Z,30.97
2018-01-07T03:00:50.182Z,21.43
2018-01-07T03:03:19.657Z,19.10
2018-01-07T03:05:49.093Z,21.77
2018-01-07T03:08:18.563Z,54.57
2018-01-07T03:10:47.997Z,64.37
2018-01-07T03:13:17.457Z,30.60
2018-01-07T03:15:46.889Z,26.57
2018-01-07T03:18:16.470Z,25.93
2018-01-07T03:20:45.902Z,38.27
2018-01-07T03:23:15.358Z,32.67
2018-01-07T03:25:44.789Z,39.83
2018-01-07T03:28:14.269Z,30.70
2018-01-07T03:30:43.699Z,49.87
2018-01-07T03:33:13.140Z,73.73
2018-01-07T03:35:42.629Z,82.53
2018-01-07T03:38:12.067Z,107.57
2018-01-07T03:40:41.513Z,94.93
2018-01-07T03:43:10.988Z,202.13
2018-01-07T03:45:40.448Z,246.27
2018-01-07T03:48:09.907Z,115.13
2018-01-07T03:50:39.344Z,75.63
2018-01-07T03:53:08.790Z,79.67
2018-01-07T03:55:38.248Z,127.00
2018-01-07T03:58:07.718Z,90.47
2018-01-07T04:00:37.158Z,82.67
2018-01-07T04:03:06.609Z,38.33
2018-01-07T04:05:36.063Z,120.67
2018-01-07T04:08:05.530Z,61.17
2018-01-07T04:10:35.233Z,85.00
2018-01-07T04:13:04.672Z,87.20
2018-01-07T04:15:34.147Z,88.03
2018-01-07T04:18:03.574Z,65.37
2018-01-07T04:20:33.153Z,60.20
2018-01-07T04:23:02.637Z,53.97
2018-01-07T04:25:32.058Z,61.03
2018-01-07T04:28:01.490Z,80.83
2018-01-07T04:30:30.999Z,149.30
2018-01-07T04:33:00.438Z,62.07
2018-01-07T04:35:29.901Z,40.10
2018-01-07T04:37:59.341Z,112.63
2018-01-07T04:40:28.809Z,49.20
2018-01-07T04:42:58.241Z,63.40
2018-01-07T04:45:27.701Z,79.13
2018-01-07T04:47:57.132Z,97.13
2018-01-07T04:50:26.614Z,49.40
2018-01-07T04:52:56.061Z,64.23
2018-01-07T04:55:25.574Z,106.40
2018-01-07T04:57:55.044Z,155.47
2018-01-07T05:00:24.485Z,60.07
2018-01-07T05:02:53.948Z,75.30
2018-01-07T05:05:23.393Z,52.90
2018-01-07T05:07:52.853Z,62.17
2018-01-07T05:10:22.299Z,61.40
2018-01-07T05:12:51.817Z,85.97
2018-01-07T05:15:21.274Z,54.43
2018-01-07T05:17:50.730Z,69.43
2018-01-07T05:20:20.191Z,95.07
2018-01-07T05:22:49.721Z,130.20
2018-01-07T05:25:19.162Z,101.53
2018-01-07T05:27:48.629Z,90.53
2018-01-07T05:30:18.084Z,39.33
2018-01-07T05:32:47.642Z,70.97
2018-01-07T05:35:17.085Z,64.10
2018-01-07T05:37:46.522Z,43.63
2018-01-07T05:40:15.973Z,78.03
2018-01-07T05:42:45.529Z,69.77
2018-01-07T05:45:14.977Z,49.60
2018-01-07T05:47:44.413Z,170.63
2018-01-07T05:50:13.866Z,372.63
2018-01-07T05:52:43.309Z,158.93
2018-01-07T05:55:12.766Z,86.40
2018-01-07T05:57:42.213Z,164.47
2018-01-07T06:00:11.678Z,102.33
2018-01-07T06:02:41.132Z,204.60
2018-01-07T06:05:10.594Z,256.07
2018-01-07T06:07:40.043Z,284.53
2018-01-07T06:10:09.517Z,278.80
2018-01-07T06:12:38.963Z,299.57
2018-01-07T06:15:08.476Z,192.53
2018-01-07T06:17:37.921Z,219.10
2018-01-07T06:20:07.382Z,163.03
2018-01-07T06:22:36.842Z,117.27
2018-01-07T06:25:06.282Z,142.70
2018-01-07T06:27:35.806Z,209.63
2018-01-07T06:30:05.346Z,183.83
2018-01-07T06:32:34.802Z,125.00
2018-01-07T06:35:04.249Z,231.83
2018-01-07T06:37:33.738Z,388.33
2018-01-07T06:40:03.223Z,234.43
2018-01-07T06:42:32.697Z,322.30
2018-01-07T06:45:02.142Z,426.07
2018-01-07T06:47:31.595Z,293.23
2018-01-07T06:50:01.330Z,334.53
2018-01-07T06:52:30.768Z,441.13
2018-01-07T06:55:00.225Z,506.83
2018-01-07T06:57:29.670Z,508.90
2018-01-07T06:59:59.180Z,596.10
2018-01-07T07:02:28.626Z,528.67
2018-01-07T07:04:58.070Z,485.83
2018-01-07T07:07:27.521Z,461.27
2018-01-07T07:09:57.015Z,464.20
2018-01-07T07:12:26.446Z,372.40
2018-01-07T07:14:55.928Z,444.73
2018-01-07T07:17:25.562Z,481.93
2018-01-07T07:19:55.300Z,552.20
2018-01-07T07:22:25.060Z,233.63
2018-01-07T07:24:54.530Z,639.60
2018-01-07T07:27:23.967Z,547.60
2018-01-07T07:29:53.542Z,472.33
2018-01-07T07:32:23.120Z,345.53
2018-01-07T07:34:52.594Z,387.53
2018-01-07T07:37:22.364Z,332.73
2018-01-07T07:39:51.809Z,202.57
2018-01-07T07:42:21.215Z,161.23
2018-01-07T07:44:50.804Z,184.07
2018-01-07T07:47:20.265Z,142.20
2018-01-07T07:49:49.713Z,96.53
2018-01-07T07:52:19.173Z,113.80
2018-01-07T07:54:48.626Z,139.53
2018-01-07T07:57:18.058Z,95.33
2018-01-07T07:59:47.617Z,164.67
2018-01-07T08:02:17.064Z,104.87
2018-01-07T08:04:46.525Z,112.00
2018-01-07T08:07:15.967Z,48.60
2018-01-07T08:09:45.427Z,73.90
2018-01-07T08:12:14.903Z,77.30
2018-01-07T08:14:44.362Z,79.63
2018-01-07T08:17:13.877Z,65.53
2018-01-07T08:19:43.315Z,70.87
2018-01-07T08:22:12.766Z,57.87
2018-01-07T08:24:41.893Z,77.93
2018-01-07T08:27:11.374Z,59.00
2018-01-07T08:29:40.897Z,75.27
2018-01-07T08:32:10.346Z,75.47
2018-01-07T08:34:39.854Z,67.77
2018-01-07T08:37:09.383Z,55.37
2018-01-07T08:39:38.830Z,67.43
2018-01-07T08:42:08.281Z,64.33
2018-01-07T08:44:37.717Z,84.70
2018-01-07T08:47:07.406Z,70.07
2018-01-07T08:49:36.852Z,117.83
2018-01-07T08:52:06.301Z,67.17
2018-01-07T08:54:35.750Z,64.07
2018-01-07T08:57:05.211Z,77.50
2018-01-07T08:59:34.737Z,84.13
2018-01-07T09:02:04.174Z,83.33
2018-01-07T09:04:33.633Z,72.63
2018-01-07T09:07:03.116Z,92.67
2018-01-07T09:09:32.618Z,88.00
2018-01-07T09:12:02.077Z,76.23
2018-01-07T09:14:31.529Z,84.07
2018-01-07T09:17:00.974Z,63.00
2018-01-07T09:19:30.542Z,96.20
2018-01-07T09:22:00.001Z,89.87
2018-01-07T09:24:29.470Z,103.23
2018-01-07T09:26:58.921Z,92.33
2018-01-07T09:29:28.366Z,82.00
2018-01-07T09:31:57.816Z,91.70
2018-01-07T09:34:27.274Z,78.83
2018-01-07T09:36:56.807Z,70.40
2018-01-07T09:39:26.255Z,100.13
2018-01-07T09:41:55.750Z,80.80
2018-01-07T09:44:25.188Z,83.77
2018-01-07T09:46:54.658Z,74.00
2018-01-07T09:49:24.105Z,94.17
2018-01-07T09:51:53.578Z,82.87
2018-01-07T09:54:23.022Z,78.30
2018-01-07T09:56:52.454Z,72.17
2018-01-07T09:59:21.910Z,77.00
2018-01-07T10:01:51.353Z,68.97
2018-01-07T10:04:20.813Z,56.07
2018-01-07T10:06:50.276Z,63.57
2018-01-07T10:09:19.791Z,66.30
2018-01-07T10:11:49.389Z,60.67
2018-01-07T10:14:18.845Z,59.23
2018-01-07T10:16:48.290Z,63.50
2018-01-07T10:19:17.774Z,58.23
2018-01-07T10:21:47.214Z,53.93
2018-01-07T10:24:16.686Z,60.53
2018-01-07T10:26:46.122Z,54.70
2018-01-07T10:29:15.578Z,56.50
2018-01-07T10:31:45.061Z,49.10
2018-01-07T10:34:14.518Z,51.67
2018-01-07T10:36:44.041Z,50.83
2018-01-07T10:39:13.502Z,54.53
2018-01-07T10:41:42.971Z,53.90
2018-01-07T10:44:12.403Z,54.73
2018-01-07T10:46:41.854Z,57.40
2018-01-07T10:49:11.282Z,55.57
2018-01-07T10:51:40.753Z,50.00
2018-01-07T10:54:10.194Z,56.60
2018-01-07T10:56:39.713Z,49.73
2018-01-07T10:59:09.161Z,41.17
2018-01-07T11:01:44.362Z,49.03
2018-01-07T11:04:13.828Z,42.47
2018-01-07T11:06:43.280Z,43.20
2018-01-07T11:09:12.707Z,51.37
2018-01-07T11:11:42.182Z,54.83
2018-01-07T11:14:11.634Z,47.77
2018-01-07T11:16:41.078Z,48.40
2018-01-07T11:19:10.566Z,43.50
2018-01-07T11:21:40.003Z,41.27
2018-01-07T11:24:09.466Z,38.20
2018-01-07T11:26:38.909Z,40.07
2018-01-07T11:29:08.378Z,34.50
2018-01-07T11:31:37.806Z,40.77
2018-01-07T11:34:07.264Z,35.97
2018-01-07T11:36:36.726Z,35.23
2018-01-07T11:39:06.201Z,38.67
2018-01-07T11:41:35.683Z,35.60
2018-01-07T11:44:05.153Z,39.30
2018-01-07T11:46:34.596Z,37.77
2018-01-07T11:49:04.054Z,36.30
2018-01-07T11:51:33.501Z,30.70
2018-01-07T11:54:02.994Z,30.90
2018-01-07T11:56:32.446Z,34.07
2018-01-07T11:59:01.900Z,30.47
2018-01-07T12:01:31.351Z,31.23
2018-01-07T12:04:00.847Z,30.80
2018-01-07T12:06:30.363Z,28.23
2018-01-07T12:08:59.818Z,25.37
2018-01-07T12:11:29.293Z,26.83
2018-01-07T12:13:58.759Z,30.63
2018-01-07T12:16:28.234Z,26.60
2018-01-07T12:18:57.706Z,26.90
2018-01-07T12:21:27.162Z,33.80
2018-01-07T12:23:56.613Z,27.97
2018-01-07T12:26:26.219Z,26.50
2018-01-07T12:28:55.669Z,25.93
2018-01-07T12:31:25.289Z,26.73
2018-01-07T12:33:54.790Z,28.40
2018-01-07T12:36:24.254Z,28.93
2018-01-07T12:38:53.718Z,29.40
2018-01-07T12:41:23.173Z,22.43
2018-01-07T12:43:52.646Z,22.00
2018-01-07T12:46:22.081Z,22.97
2018-01-07T12:48:51.539Z,25.60
2018-01-07T12:51:20.974Z,24.50
2018-01-07T12:53:50.421Z,27.37
2018-01-07T12:56:19.865Z,24.93
2018-01-07T12:58:49.386Z,27.03
2018-01-07T13:01:18.907Z,28.00
2018-01-07T13:03:48.362Z,24.23
2018-01-07T13:06:17.826Z,25.57
2018-01-07T13:08:47.279Z,26.50
2018-01-07T13:11:16.729Z,19.73
2018-01-07T13:13:46.635Z,20.83
2018-01-07T13:16:16.115Z,21.57
2018-01-07T13:18:45.755Z,25.03
2018-01-07T13:21:15.220Z,22.33
2018-01-07T13:23:44.731Z,21.50
2018-01-07T13:26:14.337Z,23.90
2018-01-07T13:28:43.798Z,19.13
2018-01-07T13:31:13.247Z,19.50
2018-01-07T13:33:42.691Z,20.60
2018-01-07T13:36:12.165Z,20.00
2018-01-07T13:38:41.603Z,19.20
2018-01-07T13:41:11.065Z,20.97
2018-01-07T13:43:40.499Z,20.40
2018-01-07T13:46:10.051Z,17.53
2018-01-07T13:48:39.513Z,20.10
2018-01-07T13:51:08.765Z,21.30
2018-01-07T13:53:38.231Z,19.93
2018-01-07T13:56:07.682Z,20.33
2018-01-07T13:58:37.184Z,20.17
2018-01-07T14:01:06.641Z,20.87
2018-01-07T14:03:36.113Z,16.83
2018-01-07T14:06:05.578Z,18.57
2018-01-07T14:08:35.039Z,18.63
2018-01-07T14:11:04.536Z,17.00
2018-01-07T14:13:34.051Z,19.80
2018-01-07T14:16:03.510Z,17.40
2018-01-07T14:18:32.935Z,18.80
2018-01-07T14:21:02.440Z,16.00
2018-01-07T14:23:31.899Z,17.27
2018-01-07T14:26:01.353Z,16.03
2018-01-07T14:28:30.814Z,20.30
2018-01-07T14:31:00.247Z,15.83
2018-01-07T14:33:29.714Z,15.37
2018-01-07T14:35:59.174Z,17.77
2018-01-07T14:38:28.636Z,15.73
2018-01-07T14:40:58.130Z,16.97
2018-01-07T14:43:27.616Z,17.50
2018-01-07T14:45:57.093Z,15.50
2018-01-07T14:48:26.608Z,18.53
2018-01-07T14:50:56.085Z,19.97
2018-01-07T14:53:25.556Z,18.50
2018-01-07T14:55:55.069Z,16.27
2018-01-07T14:58:24.163Z,16.73
2018-01-07T15:00:53.623Z,17.80
2018-01-07T15:03:23.122Z,15.97
2018-01-07T15:05:52.742Z,14.70
2018-01-07T15:08:22.214Z,15.13
2018-01-07T15:10:51.685Z,19.23
2018-01-07T15:13:21.353Z,18.37
2018-01-07T15:15:50.824Z,14.63
2018-01-07T15:18:20.262Z,17.97
2018-01-07T15:20:49.701Z,17.37
2018-01-07T15:23:19.262Z,18.07
2018-01-07T15:25:48.717Z,19.20
2018-01-07T15:28:18.362Z,15.40
2018-01-07T15:30:47.820Z,16.43
2018-01-07T15:33:17.292Z,15.70
2018-01-07T15:35:46.738Z,16.90
2018-01-07T15:38:16.242Z,16.67
2018-01-07T15:40:45.698Z,18.43
2018-01-07T15:43:15.155Z,18.77
2018-01-07T15:45:44.608Z,18.40
2018-01-07T15:48:14.076Z,18.53
2018-01-07T15:50:43.672Z,19.40
2018-01-07T15:53:13.121Z,18.23
2018-01-07T15:55:42.582Z,19.90
2018-01-07T15:58:12.185Z,17.23
2018-01-07T16:00:41.646Z,15.90
2018-01-07T16:03:10.920Z,17.53
2018-01-07T16:05:40.359Z,15.90
2018-01-07T16:08:09.662Z,17.93
2018-01-07T16:10:39.121Z,16.17
2018-01-07T16:13:08.571Z,16.00
2018-01-07T16:15:38.065Z,20.90
2018-01-07T16:18:07.192Z,17.37
2018-01-07T16:20:36.712Z,15.63
2018-01-07T16:23:06.165Z,16.50
2018-01-07T16:25:35.638Z,18.03
2018-01-07T16:28:05.083Z,16.47
2018-01-07T16:30:34.538Z,15.37
2018-01-07T16:33:03.979Z,17.63
2018-01-07T16:35:33.443Z,16.40
2018-01-07T16:38:02.885Z,18.90
2018-01-07T16:40:32.337Z,16.40
2018-01-07T16:43:01.828Z,16.77
2018-01-07T16:45:31.451Z,17.70
2018-01-07T16:48:00.906Z,18.30
2018-01-07T16:50:30.388Z,16.87
2018-01-07T16:52:59.882Z,17.17
2018-01-07T16:55:29.322Z,19.73
2018-01-07T16:57:59.244Z,15.73
2018-01-07T17:00:29.139Z,18.20
2018-01-07T17:02:59.122Z,19.87
2018-01-07T17:05:28.821Z,16.20
2018-01-07T17:07:58.803Z,16.67
2018-01-07T17:10:28.776Z,21.37
2018-01-07T17:12:58.809Z,15.80
2018-01-07T17:15:28.322Z,16.60
2018-01-07T17:17:57.782Z,17.17
2018-01-07T17:20:27.222Z,16.40
2018-01-07T17:22:56.808Z,16.07
2018-01-07T17:25:26.246Z,15.93
2018-01-07T17:27:55.705Z,15.47
2018-01-07T17:30:25.158Z,16.20
2018-01-07T17:32:54.671Z,15.73
2018-01-07T17:35:24.151Z,16.00
2018-01-07T17:37:53.612Z,15.30
2018-01-07T17:40:23.070Z,15.00
2018-01-07T17:42:52.553Z,13.17
2018-01-07T17:45:22.001Z,13.90
2018-01-07T17:47:51.454Z,13.27
2018-01-07T17:50:20.921Z,14.00
2018-01-07T17:52:50.411Z,12.53
2018-01-07T17:55:19.906Z,12.33
2018-01-07T17:57:49.350Z,13.27
2018-01-07T18:00:18.802Z,13.70
2018-01-07T18:02:48.279Z,13.97
2018-01-07T18:05:17.740Z,15.00
2018-01-07T18:07:47.170Z,15.20
2018-01-07T18:10:16.634Z,15.37
2018-01-07T18:12:46.219Z,14.60
2018-01-07T18:15:15.641Z,15.13
2018-01-07T18:17:45.401Z,14.43
2018-01-07T18:20:15.151Z,14.60
2018-01-07T18:22:44.630Z,14.20
2018-01-07T18:25:14.098Z,14.00
2018-01-07T18:27:43.543Z,16.67
2018-01-07T18:30:13.102Z,18.13
2018-01-07T18:32:42.554Z,13.87
2018-01-07T18:35:12.043Z,16.60
2018-01-07T18:37:41.619Z,16.27
2018-01-07T18:40:11.142Z,16.60
2018-01-07T18:42:40.663Z,19.30
2018-01-07T18:45:10.150Z,15.37
2018-01-07T18:47:39.657Z,16.20
2018-01-07T18:50:09.135Z,21.67
2018-01-07T18:52:38.595Z,17.10
2018-01-07T18:55:08.079Z,18.00
2018-01-07T18:57:37.525Z,18.70
2018-01-07T19:00:06.999Z,18.87
2018-01-07T19:02:36.482Z,22.40
2018-01-07T19:05:05.928Z,19.97
2018-01-07T19:07:35.423Z,19.93
2018-01-07T19:10:04.878Z,19.13
2018-01-07T19:12:34.359Z,19.90
2018-01-07T19:15:03.966Z,19.23
2018-01-07T19:17:33.591Z,20.03
2018-01-07T19:20:03.066Z,20.73
2018-01-07T19:22:32.513Z,21.23
2018-01-07T19:25:01.998Z,23.30
2018-01-07T19:27:31.476Z,20.77
2018-01-07T19:30:00.946Z,20.50
2018-01-07T19:32:30.423Z,20.60
2018-01-07T19:35:00.007Z,19.60
2018-01-07T19:37:29.463Z,20.27
2018-01-07T19:39:58.954Z,22.17
2018-01-07T19:42:28.393Z,20.17
2018-01-07T19:44:57.884Z,22.77
2018-01-07T19:47:27.363Z,19.80
2018-01-07T19:49:56.866Z,23.30
2018-01-07T19:52:26.322Z,21.10
2018-01-07T19:54:55.776Z,23.43
2018-01-07T19:57:25.251Z,21.77
2018-01-07T19:59:54.702Z,21.97
2018-01-07T20:02:24.194Z,19.60
2018-01-07T20:04:53.657Z,22.47
2018-01-07T20:07:23.113Z,19.77
2018-01-07T20:09:52.566Z,21.13
2018-01-07T20:12:22.035Z,20.63
2018-01-07T20:14:51.474Z,19.50
2018-01-07T20:17:20.949Z,22.57
2018-01-07T20:19:50.398Z,24.90
2018-01-07T20:22:19.858Z,25.60
2018-01-07T20:24:49.341Z,24.43
2018-01-07T20:27:18.862Z,27.03
2018-01-07T20:29:48.320Z,21.30
2018-01-07T20:32:17.905Z,21.10
2018-01-07T20:34:47.378Z,19.63
2018-01-07T20:37:16.854Z,20.70
2018-01-07T20:39:46.118Z,20.33
2018-01-07T20:42:15.577Z,19.83
2018-01-07T20:44:45.039Z,19.40
2018-01-07T20:47:14.570Z,18.43
2018-01-07T20:49:44.070Z,19.63
2018-01-07T20:52:13.546Z,19.43
2018-01-07T20:54:42.998Z,18.87
2018-01-07T20:57:12.465Z,17.40
2018-01-07T20:59:41.934Z,17.40
2018-01-07T21:02:11.472Z,20.70
2018-01-07T21:04:40.629Z,20.03
2018-01-07T21:07:10.074Z,18.50
2018-01-07T21:09:39.214Z,19.20
2018-01-07T21:12:08.830Z,18.20
2018-01-07T21:14:38.278Z,19.43
2018-01-07T21:17:07.745Z,23.90
2018-01-07T21:19:37.207Z,20.10
2018-01-07T21:22:06.669Z,22.60
2018-01-07T21:24:36.128Z,20.37
2018-01-07T21:27:05.597Z,23.17
2018-01-07T21:29:35.125Z,19.70
2018-01-07T21:32:04.649Z,19.47
2018-01-07T21:34:34.244Z,19.20
2018-01-07T21:37:03.703Z,22.47
2018-01-07T21:39:33.174Z,25.73
2018-01-07T21:42:02.657Z,19.30
2018-01-07T21:44:32.136Z,20.70
2018-01-07T21:47:01.594Z,22.10
2018-01-07T21:49:31.087Z,23.57
2018-01-07T21:52:00.558Z,22.77
2018-01-07T21:54:30.159Z,21.00
2018-01-07T21:56:59.645Z,22.00
2018-01-07T21:59:34.738Z,23.80
2018-01-07T22:02:09.889Z,19.43
2018-01-07T22:04:45.004Z,20.90
2018-01-07T22:07:14.461Z,22.57
2018-01-07T22:09:43.959Z,21.60
2018-01-07T22:12:18.944Z,23.57
2018-01-07T22:14:48.402Z,23.03
2018-01-07T22:17:17.861Z,21.83
2018-01-07T22:19:47.318Z,22.50
2018-01-07T22:22:17.094Z,23.63
2018-01-07T22:24:46.574Z,21.00
2018-01-07T22:27:16.014Z,21.33
2018-01-07T22:29:45.546Z,24.03
2018-01-07T22:32:15.169Z,21.50
2018-01-07T22:34:44.641Z,23.47
2018-01-07T22:37:14.108Z,25.60
2018-01-07T22:39:43.560Z,22.90
2018-01-07T22:42:13.018Z,22.63
2018-01-07T22:44:42.453Z,24.43
2018-01-07T22:47:11.726Z,25.10
2018-01-07T22:49:41.259Z,22.60
2018-01-07T22:52:10.875Z,25.23
2018-01-07T22:54:40.330Z,24.93
2018-01-07T22:57:09.803Z,22.30
2018-01-07T22:59:39.234Z,23.80
2018-01-07T23:02:08.715Z,25.10
2018-01-07T23:04:38.146Z,23.63
2018-01-07T23:07:07.624Z,26.27
2018-01-07T23:09:37.089Z,23.93
2018-01-07T23:12:06.621Z,23.63
2018-01-07T23:14:36.066Z,26.50
2018-01-07T23:17:05.518Z,23.60
2018-01-07T23:19:35.016Z,25.67
2018-01-07T23:22:04.477Z,22.63
2018-01-07T23:24:33.911Z,24.63
2018-01-07T23:27:03.342Z,22.90
2018-01-07T23:29:32.801Z,23.00
2018-01-07T23:32:02.241Z,23.70
2018-01-07T23:34:31.695Z,24.43
2018-01-07T23:37:00.826Z,23.97
2018-01-07T23:39:30.418Z,26.60
2018-01-07T23:41:59.894Z,27.30
2018-01-07T23:44:29.370Z,26.43
2018-01-07T23:46:58.834Z,27.17
2018-01-07T23:49:28.274Z,23.50
2018-01-07T23:51:57.734Z,23.53
2018-01-07T23:54:27.229Z,26.20
2018-01-07T23:56:56.690Z,23.03
2018-01-07T23:59:26.127Z,27.87
